Time;durP1;ratioP1;P1;durP2;ratioP2;P2;SDS_P1;SDS_P2;PMS_P1;PMS_P2;Temp;Humidity;BMP_temperature;BMP_pressure;BME280_temperature;BME280_humidity;BME280_pressure;Samples;Min_cycle;Max_cycle;Signal;HPM_P1;HPM_P2
2022/05/24 00:01:56;;;;;;;;;;;21.10;65.40;;;;;;5071697;28;19923;-89
2022/05/24 00:04:22;;;;;;;;;;;21.00;65.10;;;;;;5066974;28;20268;-89
2022/05/24 00:06:48;;;;;;;;;;;21.00;65.00;;;;;;5056604;28;19913;-87
2022/05/24 00:09:13;;;;;;;;;;;21.00;65.00;;;;;;5076198;28;19989;-88
2022/05/24 00:11:39;;;;;;;;;;;20.90;65.00;;;;;;5075862;28;19943;-88
2022/05/24 00:14:04;;;;;;;;;;;20.90;65.20;;;;;;5056812;28;20261;-88
2022/05/24 00:16:30;;;;;;;;;;;20.80;65.00;;;;;;5069251;28;20267;-88
2022/05/24 00:18:56;;;;;;;;;;;20.80;65.10;;;;;;5057276;28;20304;-88
2022/05/24 00:21:22;;;;;;;;;;;20.80;64.70;;;;;;5057343;28;19913;-88
2022/05/24 00:23:48;;;;;;;;;;;20.70;65.00;;;;;;5075934;28;19913;-88
2022/05/24 00:26:20;;;;;;;;;;;20.70;65.00;;;;;;5070703;28;19921;-88
2022/05/24 00:28:46;;;;;;;;;;;20.70;65.00;;;;;;5073701;28;19912;-88
2022/05/24 00:31:11;;;;;;;;;;;20.70;65.00;;;;;;5056214;28;19973;-88
2022/05/24 00:33:37;;;;;;;;;;;20.60;65.10;;;;;;5056858;28;19912;-88
2022/05/24 00:36:02;;;;;;;;;;;20.60;64.90;;;;;;5047996;28;19946;-89
2022/05/24 00:38:29;;;;;;;;;;;20.50;65.00;;;;;;5055557;28;19913;-88
2022/05/24 00:41:02;;;;;;;;;;;20.50;65.00;;;;;;5068249;28;19938;-88
2022/05/24 00:43:31;;;;;;;;;;;20.50;64.90;;;;;;5056102;28;20002;-88
2022/05/24 00:46:02;;;;;;;;;;;20.50;65.10;;;;;;5050948;28;20094;-88
2022/05/24 00:48:37;;;;;;;;;;;20.50;64.90;;;;;;5067733;28;19917;-88
2022/05/24 00:51:03;;;;;;;;;;;20.40;64.90;;;;;;5052523;28;20027;-87
2022/05/24 00:53:37;;;;;;;;;;;20.40;64.90;;;;;;5068587;28;19940;-88
2022/05/24 00:56:29;;;;;;;;;;;20.40;65.10;;;;;;5071666;28;19929;-88
2022/05/24 00:58:57;;;;;;;;;;;20.40;64.90;;;;;;5027242;28;19919;-88
2022/05/24 01:01:37;;;;;;;;;;;20.30;65.00;;;;;;5054518;28;19921;-88
2022/05/24 01:04:03;;;;;;;;;;;20.30;65.10;;;;;;5072967;28;19917;-88
2022/05/24 01:06:29;;;;;;;;;;;20.30;65.10;;;;;;5054205;28;20316;-88
2022/05/24 01:08:56;;;;;;;;;;;20.30;65.10;;;;;;5073889;28;19939;-86
2022/05/24 01:11:22;;;;;;;;;;;20.30;65.00;;;;;;5055045;28;19931;-88
2022/05/24 01:13:48;;;;;;;;;;;20.30;65.00;;;;;;5056278;28;19912;-88
2022/05/24 01:16:14;;;;;;;;;;;20.20;65.20;;;;;;5056553;28;20364;-88
2022/05/24 01:18:39;;;;;;;;;;;20.20;65.00;;;;;;5074606;28;20306;-88
2022/05/24 01:21:09;;;;;;;;;;;20.20;64.70;;;;;;5056239;28;19967;-88
2022/05/24 01:23:43;;;;;;;;;;;20.20;64.80;;;;;;5073767;28;19912;-88
2022/05/24 01:26:09;;;;;;;;;;;20.20;64.90;;;;;;5056555;28;19943;-88
2022/05/24 01:28:54;;;;;;;;;;;20.20;65.00;;;;;;5055852;28;19958;-88
2022/05/24 01:31:21;;;;;;;;;;;20.20;65.20;;;;;;5072871;28;20245;-88
2022/05/24 01:36:33;;;;;;;;;;;20.10;65.00;;;;;;5073844;28;19939;-88
2022/05/24 01:39:02;;;;;;;;;;;20.00;65.10;;;;;;5069455;28;19916;-87
2022/05/24 01:41:42;;;;;;;;;;;20.00;64.90;;;;;;5072101;28;20348;-88
2022/05/24 01:44:09;;;;;;;;;;;19.90;64.90;;;;;;5072150;28;20405;-87
2022/05/24 01:46:36;;;;;;;;;;;19.90;65.00;;;;;;5052103;28;19913;-87
2022/05/24 01:49:04;;;;;;;;;;;19.90;64.80;;;;;;5046863;28;19971;-86
2022/05/24 01:51:33;;;;;;;;;;;19.80;64.90;;;;;;5051740;28;20355;-87
2022/05/24 01:54:01;;;;;;;;;;;19.80;64.90;;;;;;5053035;28;19919;-87
2022/05/24 01:56:36;;;;;;;;;;;19.80;64.90;;;;;;5054330;28;19920;-87
2022/05/24 01:59:03;;;;;;;;;;;19.80;65.20;;;;;;5053824;28;19913;-87
2022/05/24 02:01:40;;;;;;;;;;;19.80;65.30;;;;;;5068613;28;19916;-88
2022/05/24 02:04:06;;;;;;;;;;;19.80;65.30;;;;;;5049983;28;19920;-87
2022/05/24 02:06:32;;;;;;;;;;;19.80;65.10;;;;;;5053624;28;20399;-88
2022/05/24 02:08:57;;;;;;;;;;;19.80;65.20;;;;;;5054865;28;19913;-87
2022/05/24 02:11:25;;;;;;;;;;;19.80;65.30;;;;;;5054509;28;20259;-87
2022/05/24 02:13:54;;;;;;;;;;;19.80;65.40;;;;;;5075672;28;19913;-87
2022/05/24 02:16:23;;;;;;;;;;;19.80;65.40;;;;;;5057426;28;20342;-88
2022/05/24 02:18:50;;;;;;;;;;;19.80;65.40;;;;;;5056952;28;19967;-88
2022/05/24 02:21:16;;;;;;;;;;;19.90;65.50;;;;;;5073573;28;20290;-88
2022/05/24 02:23:43;;;;;;;;;;;19.90;65.30;;;;;;5057398;28;20065;-88
2022/05/24 02:26:09;;;;;;;;;;;19.90;65.40;;;;;;5057912;28;20376;-88
2022/05/24 02:28:35;;;;;;;;;;;19.90;65.40;;;;;;5063034;28;20003;-88
2022/05/24 02:31:02;;;;;;;;;;;19.90;65.50;;;;;;5069630;28;19955;-88
2022/05/24 02:33:27;;;;;;;;;;;19.90;65.30;;;;;;5074592;28;20333;-88
2022/05/24 02:35:53;;;;;;;;;;;19.90;65.40;;;;;;5075101;28;19928;-87
2022/05/24 02:38:19;;;;;;;;;;;19.90;65.40;;;;;;5071171;28;20303;-87
2022/05/24 02:43:29;;;;;;;;;;;19.90;65.50;;;;;;5067656;28;19982;-88
2022/05/24 02:45:54;;;;;;;;;;;19.90;65.40;;;;;;5067670;28;19917;-88
2022/05/24 02:48:20;;;;;;;;;;;19.90;65.60;;;;;;5067371;28;19912;-89
2022/05/24 02:50:46;;;;;;;;;;;19.90;65.60;;;;;;5075825;28;19924;-88
2022/05/24 02:53:11;;;;;;;;;;;19.90;65.40;;;;;;5075965;28;20007;-88
2022/05/24 02:55:37;;;;;;;;;;;19.90;65.50;;;;;;5076110;28;19955;-87
2022/05/24 02:58:03;;;;;;;;;;;19.90;65.50;;;;;;5056896;28;19943;-87
2022/05/24 03:00:28;;;;;;;;;;;20.00;65.50;;;;;;5049655;28;20361;-88
2022/05/24 03:02:53;;;;;;;;;;;19.90;65.40;;;;;;5074711;28;19912;-87
2022/05/24 03:05:19;;;;;;;;;;;20.00;65.60;;;;;;5073175;28;19921;-88
2022/05/24 03:10:29;;;;;;;;;;;20.00;65.50;;;;;;5075173;28;20387;-88
2022/05/24 03:15:40;;;;;;;;;;;20.00;65.70;;;;;;5084788;28;19923;-88
2022/05/24 03:18:06;;;;;;;;;;;20.00;65.40;;;;;;5063617;28;19912;-88
2022/05/24 03:20:33;;;;;;;;;;;20.10;65.40;;;;;;5074955;28;19944;-88
2022/05/24 03:22:58;;;;;;;;;;;20.10;65.50;;;;;;5061901;28;19958;-89
2022/05/24 03:25:23;;;;;;;;;;;20.10;65.50;;;;;;5070332;28;19921;-88
2022/05/24 03:27:49;;;;;;;;;;;20.10;65.30;;;;;;5073229;28;19912;-88
2022/05/24 03:30:15;;;;;;;;;;;20.10;65.30;;;;;;5074791;28;19924;-89
2022/05/24 03:32:40;;;;;;;;;;;20.10;65.30;;;;;;5074532;28;19912;-88
2022/05/24 03:35:07;;;;;;;;;;;20.10;65.40;;;;;;5074876;28;20012;-89
2022/05/24 03:37:32;;;;;;;;;;;20.10;65.50;;;;;;5074656;28;19920;-89
2022/05/24 03:39:58;;;;;;;;;;;20.10;65.40;;;;;;5057316;28;20404;-88
2022/05/24 03:42:23;;;;;;;;;;;20.10;65.40;;;;;;5073549;28;19913;-87
2022/05/24 03:44:49;;;;;;;;;;;20.10;65.30;;;;;;5073693;28;19970;-88
2022/05/24 03:47:15;;;;;;;;;;;20.00;65.30;;;;;;5074940;28;20027;-89
2022/05/24 03:49:40;;;;;;;;;;;20.00;65.40;;;;;;5075397;28;19920;-89
2022/05/24 03:52:06;;;;;;;;;;;19.90;65.50;;;;;;5075118;28;19920;-88
2022/05/24 03:54:32;;;;;;;;;;;19.90;65.70;;;;;;5093340;28;19916;-88
2022/05/24 03:59:43;;;;;;;;;;;19.90;65.80;;;;;;5071822;28;19928;-87
2022/05/24 04:02:08;;;;;;;;;;;19.90;65.90;;;;;;5054893;28;19913;-87
2022/05/24 04:04:34;;;;;;;;;;;19.90;65.90;;;;;;5054816;28;19924;-89
2022/05/24 04:06:59;;;;;;;;;;;19.90;66.00;;;;;;5053896;28;19917;-89
2022/05/24 04:09:25;;;;;;;;;;;19.90;65.90;;;;;;5055112;28;20303;-89
2022/05/24 04:11:53;;;;;;;;;;;20.00;65.80;;;;;;5072125;28;19955;-89
2022/05/24 04:14:18;;;;;;;;;;;19.90;65.90;;;;;;5053730;28;20295;-89
2022/05/24 04:16:43;;;;;;;;;;;20.00;66.00;;;;;;5054197;28;19962;-89
2022/05/24 04:19:09;;;;;;;;;;;20.00;65.80;;;;;;5055107;28;19912;-89
2022/05/24 04:21:34;;;;;;;;;;;20.00;65.90;;;;;;5072796;28;19923;-89
2022/05/24 04:24:00;;;;;;;;;;;20.10;65.80;;;;;;5071838;28;19963;-89
2022/05/24 04:26:25;;;;;;;;;;;20.20;65.90;;;;;;5054146;28;19947;-89
2022/05/24 04:28:51;;;;;;;;;;;20.20;66.00;;;;;;5058006;28;19912;-89
2022/05/24 04:31:16;;;;;;;;;;;20.20;66.00;;;;;;5051230;28;19927;-89
2022/05/24 04:33:42;;;;;;;;;;;20.30;65.90;;;;;;5041016;28;19955;-89
2022/05/24 04:36:07;;;;;;;;;;;20.30;66.00;;;;;;5054145;28;19920;-89
2022/05/24 04:38:33;;;;;;;;;;;20.30;66.00;;;;;;5060468;28;19913;-89
2022/05/24 04:43:42;;;;;;;;;;;20.40;65.80;;;;;;5071111;28;20263;-89
2022/05/24 04:46:08;;;;;;;;;;;20.50;65.90;;;;;;5053586;28;19917;-89
2022/05/24 04:48:33;;;;;;;;;;;20.50;66.00;;;;;;5075951;28;19912;-88
2022/05/24 04:50:59;;;;;;;;;;;20.60;65.80;;;;;;5055764;28;20372;-89
2022/05/24 04:53:25;;;;;;;;;;;20.60;65.80;;;;;;5074303;28;19916;-89
2022/05/24 04:55:51;;;;;;;;;;;20.60;65.80;;;;;;5058071;28;20280;-89
2022/05/24 04:58:16;;;;;;;;;;;20.60;65.80;;;;;;5059251;28;19913;-88
2022/05/24 05:00:42;;;;;;;;;;;20.70;65.50;;;;;;5073395;28;19996;-88
2022/05/24 05:03:13;;;;;;;;;;;20.70;65.70;;;;;;5073546;28;19958;-89
2022/05/24 05:05:38;;;;;;;;;;;20.80;65.80;;;;;;5074998;28;19944;-88
2022/05/24 05:08:05;;;;;;;;;;;20.80;65.70;;;;;;5064555;28;19967;-89
2022/05/24 05:10:30;;;;;;;;;;;20.90;65.70;;;;;;5061773;28;19921;-89
2022/05/24 05:12:56;;;;;;;;;;;20.90;65.60;;;;;;5061342;28;19931;-89
2022/05/24 05:15:21;;;;;;;;;;;21.00;65.60;;;;;;5066113;28;20628;-89
2022/05/24 05:17:47;;;;;;;;;;;21.00;65.50;;;;;;5071278;28;19913;-89
2022/05/24 05:20:13;;;;;;;;;;;21.00;65.40;;;;;;5072818;28;19928;-88
2022/05/24 05:22:38;;;;;;;;;;;21.10;65.40;;;;;;5058165;28;20321;-89
2022/05/24 05:25:05;;;;;;;;;;;21.10;65.50;;;;;;5071349;28;19917;-89
2022/05/24 05:27:30;;;;;;;;;;;21.20;65.60;;;;;;5061700;28;20368;-89
2022/05/24 05:32:41;;;;;;;;;;;21.30;65.50;;;;;;5069947;28;19934;-89
2022/05/24 05:35:07;;;;;;;;;;;21.30;65.50;;;;;;5060167;28;19990;-89
2022/05/24 05:37:33;;;;;;;;;;;21.40;65.40;;;;;;5057543;28;19916;-89
2022/05/24 05:40:05;;;;;;;;;;;21.40;65.40;;;;;;5060516;28;19916;-89
2022/05/24 05:42:31;;;;;;;;;;;21.50;65.20;;;;;;5060876;28;19934;-89
2022/05/24 05:44:56;;;;;;;;;;;21.50;65.30;;;;;;5068080;28;20011;-89
2022/05/24 05:47:22;;;;;;;;;;;21.50;65.40;;;;;;5062583;28;20581;-89
2022/05/24 05:49:47;;;;;;;;;;;21.60;65.20;;;;;;5084660;28;19927;-89
2022/05/24 05:52:13;;;;;;;;;;;21.70;65.10;;;;;;5078023;28;19912;-89
2022/05/24 05:54:38;;;;;;;;;;;21.70;65.20;;;;;;5060983;28;19923;-90
2022/05/24 05:57:07;;;;;;;;;;;21.80;65.30;;;;;;5078771;28;19919;-89
2022/05/24 05:59:33;;;;;;;;;;;21.90;65.30;;;;;;5083410;28;19958;-89
2022/05/24 06:01:58;;;;;;;;;;;22.00;65.30;;;;;;5066994;28;20253;-89
2022/05/24 06:04:25;;;;;;;;;;;22.20;65.20;;;;;;5078840;28;19916;-89
2022/05/24 06:06:52;;;;;;;;;;;22.20;64.60;;;;;;5065326;28;19912;-90
2022/05/24 06:09:17;;;;;;;;;;;22.20;64.80;;;;;;5074988;28;20340;-89
2022/05/24 06:11:44;;;;;;;;;;;22.30;64.40;;;;;;5078874;28;19928;-90
2022/05/24 06:14:10;;;;;;;;;;;22.30;64.20;;;;;;5063023;28;19920;-89
2022/05/24 06:16:35;;;;;;;;;;;22.30;64.40;;;;;;5081225;28;20336;-89
2022/05/24 06:19:02;;;;;;;;;;;22.20;63.90;;;;;;5065639;28;19909;-90
2022/05/24 06:21:28;;;;;;;;;;;22.20;63.60;;;;;;5072738;28;20326;-89
2022/05/24 06:23:54;;;;;;;;;;;22.10;63.70;;;;;;5072912;28;19922;-89
2022/05/24 06:26:21;;;;;;;;;;;22.00;63.80;;;;;;5074105;28;19916;-90
2022/05/24 06:28:47;;;;;;;;;;;22.00;64.10;;;;;;5071602;28;20420;-89
2022/05/24 06:31:12;;;;;;;;;;;22.00;64.20;;;;;;5071241;28;19928;-89
2022/05/24 06:33:38;;;;;;;;;;;21.80;63.80;;;;;;5068104;28;19916;-89
2022/05/24 06:36:03;;;;;;;;;;;21.70;63.40;;;;;;5068718;28;19925;-89
2022/05/24 06:38:29;;;;;;;;;;;21.50;63.70;;;;;;5070988;28;19917;-89
2022/05/24 06:40:54;;;;;;;;;;;21.30;63.90;;;;;;5074084;28;19970;-89
2022/05/24 06:43:20;;;;;;;;;;;21.20;64.40;;;;;;5064056;28;19912;-90
2022/05/24 06:45:45;;;;;;;;;;;21.00;64.30;;;;;;5068169;28;20348;-92
2022/05/24 06:48:11;;;;;;;;;;;20.80;64.70;;;;;;5076690;28;19908;-91
2022/05/24 06:50:37;;;;;;;;;;;20.60;64.50;;;;;;5076783;28;19925;-91
2022/05/24 06:53:02;;;;;;;;;;;20.40;64.60;;;;;;5074761;28;20007;-91
2022/05/24 06:55:28;;;;;;;;;;;20.40;65.20;;;;;;5045604;28;19944;-91
2022/05/24 06:57:53;;;;;;;;;;;20.30;65.40;;;;;;5079519;28;19923;-91
2022/05/24 07:03:05;;;;;;;;;;;20.20;65.60;;;;;;5076876;28;19923;-91
2022/05/24 07:05:30;;;;;;;;;;;20.10;65.90;;;;;;5058022;28;19990;-91
2022/05/24 07:08:00;;;;;;;;;;;19.90;65.00;;;;;;5064548;28;20399;-91
2022/05/24 07:10:25;;;;;;;;;;;19.80;64.70;;;;;;5067578;28;20026;-90
2022/05/24 07:12:57;;;;;;;;;;;19.70;64.70;;;;;;5080933;28;19954;-90
2022/05/24 07:15:23;;;;;;;;;;;19.50;64.50;;;;;;5069867;28;19924;-90
2022/05/24 07:17:49;;;;;;;;;;;19.40;64.60;;;;;;5061265;28;20274;-90
2022/05/24 07:20:14;;;;;;;;;;;19.30;64.80;;;;;;5069406;28;19919;-90
2022/05/24 07:22:40;;;;;;;;;;;19.20;65.10;;;;;;5045403;28;19982;-90
2022/05/24 07:25:06;;;;;;;;;;;19.10;65.20;;;;;;5083625;28;19925;-91
2022/05/24 07:27:32;;;;;;;;;;;19.00;65.10;;;;;;5071120;28;20012;-91
2022/05/24 07:29:57;;;;;;;;;;;18.90;65.30;;;;;;5063862;28;19960;-91
2022/05/24 07:32:22;;;;;;;;;;;18.80;65.50;;;;;;5061998;28;19927;-91
2022/05/24 07:34:48;;;;;;;;;;;18.80;65.60;;;;;;5087398;28;19927;-91
2022/05/24 07:37:15;;;;;;;;;;;18.70;65.70;;;;;;5065313;28;19917;-91
2022/05/24 07:39:40;;;;;;;;;;;18.70;65.70;;;;;;5066767;28;19920;-90
2022/05/24 07:47:35;;;;;;;;;;;18.40;66.00;;;;;;5078029;28;19908;-90
2022/05/24 07:50:01;;;;;;;;;;;18.40;66.20;;;;;;5066946;28;19924;-91
2022/05/24 07:52:26;;;;;;;;;;;18.40;66.20;;;;;;5075156;28;19912;-90
2022/05/24 07:54:52;;;;;;;;;;;18.40;66.40;;;;;;5062762;28;20011;-90
2022/05/24 07:57:18;;;;;;;;;;;18.50;66.70;;;;;;5073726;28;19897;-90
2022/05/24 07:59:47;;;;;;;;;;;18.60;66.90;;;;;;5062521;28;19923;-90
2022/05/24 08:02:13;;;;;;;;;;;18.60;66.80;;;;;;5052194;28;19916;-90
2022/05/24 08:04:39;;;;;;;;;;;18.60;67.00;;;;;;5067863;28;19928;-91
2022/05/24 08:07:06;;;;;;;;;;;18.60;66.90;;;;;;5078998;28;19917;-91
2022/05/24 08:09:32;;;;;;;;;;;18.70;67.10;;;;;;5083882;28;19928;-91
2022/05/24 08:11:57;;;;;;;;;;;18.80;67.30;;;;;;5077452;28;19924;-91
2022/05/24 08:14:23;;;;;;;;;;;18.80;67.00;;;;;;5075060;28;19970;-91
2022/05/24 08:16:48;;;;;;;;;;;18.90;67.30;;;;;;5066447;28;19916;-91
2022/05/24 08:19:14;;;;;;;;;;;19.00;67.20;;;;;;5070447;28;19980;-91
2022/05/24 08:21:39;;;;;;;;;;;19.10;67.00;;;;;;5077303;28;19919;-91
2022/05/24 08:24:05;;;;;;;;;;;19.10;67.00;;;;;;5075197;28;19916;-91
2022/05/24 08:26:31;;;;;;;;;;;19.10;66.90;;;;;;5060363;28;19935;-91
2022/05/24 08:28:58;;;;;;;;;;;19.10;66.80;;;;;;5086058;28;19966;-91
2022/05/24 08:31:23;;;;;;;;;;;19.10;66.80;;;;;;5075464;28;19923;-92
2022/05/24 08:33:50;;;;;;;;;;;19.10;66.70;;;;;;5067950;28;19938;-91
2022/05/24 08:36:16;;;;;;;;;;;19.00;66.60;;;;;;5062832;28;20380;-91
2022/05/24 08:38:41;;;;;;;;;;;19.10;66.90;;;;;;5069480;28;19915;-91
2022/05/24 08:41:10;;;;;;;;;;;19.10;67.00;;;;;;5087994;28;19925;-91
2022/05/24 08:43:40;;;;;;;;;;;19.20;67.20;;;;;;5055632;28;19904;-91
2022/05/24 08:49:14;;;;;;;;;;;19.70;67.80;;;;;;5025689;28;19956;-91
2022/05/24 08:51:42;;;;;;;;;;;19.80;67.20;;;;;;5054821;28;19950;-91
2022/05/24 08:54:15;;;;;;;;;;;19.90;67.10;;;;;;5069614;28;19916;-91
2022/05/24 08:56:44;;;;;;;;;;;20.10;67.50;;;;;;5065738;28;20406;-91
2022/05/24 08:59:16;;;;;;;;;;;20.40;67.70;;;;;;5091733;28;19947;-90
2022/05/24 09:01:44;;;;;;;;;;;20.70;67.50;;;;;;5065734;28;19954;-90
2022/05/24 09:04:10;;;;;;;;;;;21.10;67.80;;;;;;5062040;28;19912;-90
2022/05/24 09:06:43;;;;;;;;;;;21.40;67.30;;;;;;5071911;28;19966;-90
2022/05/24 09:09:12;;;;;;;;;;;21.60;66.40;;;;;;5070167;28;19929;-88
2022/05/24 09:11:49;;;;;;;;;;;21.70;65.80;;;;;;5061462;28;19928;-89
2022/05/24 09:14:21;;;;;;;;;;;21.90;65.60;;;;;;5062272;28;19920;-89
2022/05/24 09:16:59;;;;;;;;;;;22.20;65.40;;;;;;5057306;28;19916;-89
2022/05/24 09:19:26;;;;;;;;;;;22.30;65.70;;;;;;5057679;28;19983;-88
2022/05/24 09:21:53;;;;;;;;;;;22.30;64.70;;;;;;5057327;28;19917;-89
2022/05/24 09:24:33;;;;;;;;;;;22.30;64.10;;;;;;5073352;28;19916;-88
2022/05/24 09:27:07;;;;;;;;;;;22.40;64.20;;;;;;5058035;28;19928;-89
2022/05/24 09:29:33;;;;;;;;;;;22.40;64.80;;;;;;5066514;28;19973;-89
2022/05/24 09:32:03;;;;;;;;;;;22.90;66.10;;;;;;5075862;28;19932;-89
2022/05/24 09:34:30;;;;;;;;;;;23.40;66.00;;;;;;5085760;28;19916;-89
2022/05/24 09:36:57;;;;;;;;;;;24.10;66.50;;;;;;5073392;28;19928;-89
2022/05/24 09:39:25;;;;;;;;;;;24.50;65.30;;;;;;5058726;28;19913;-89
2022/05/24 09:41:53;;;;;;;;;;;24.80;64.50;;;;;;5058607;28;19927;-89
2022/05/24 09:44:18;;;;;;;;;;;25.10;64.70;;;;;;5059177;28;19951;-89
2022/05/24 09:46:44;;;;;;;;;;;25.60;64.00;;;;;;5074749;28;19916;-90
2022/05/24 09:49:27;;;;;;;;;;;25.70;62.40;;;;;;5068801;28;20339;-89
2022/05/24 09:51:55;;;;;;;;;;;25.60;60.80;;;;;;5067793;28;19935;-89
2022/05/24 09:54:22;;;;;;;;;;;25.60;61.40;;;;;;5075693;28;19923;-90
2022/05/24 09:56:59;;;;;;;;;;;25.80;61.80;;;;;;5059978;28;19917;-90
2022/05/24 09:59:28;;;;;;;;;;;26.40;62.50;;;;;;5074881;28;20290;-89
2022/05/24 10:01:54;;;;;;;;;;;27.20;61.70;;;;;;5050857;28;19916;-88
2022/05/24 10:04:22;;;;;;;;;;;27.50;60.10;;;;;;5059021;28;19919;-89
2022/05/24 10:06:57;;;;;;;;;;;28.20;61.00;;;;;;5057399;28;20018;-90
2022/05/24 10:09:27;;;;;;;;;;;28.80;60.60;;;;;;5079018;28;19999;-90
2022/05/24 10:11:57;;;;;;;;;;;29.00;59.40;;;;;;5074022;28;19947;-89
2022/05/24 10:14:23;;;;;;;;;;;28.80;58.00;;;;;;5078806;28;19916;-89
2022/05/24 10:16:51;;;;;;;;;;;28.60;58.30;;;;;;5067955;28;19938;-89
2022/05/24 10:19:20;;;;;;;;;;;28.70;58.10;;;;;;5050664;28;19951;-89
2022/05/24 10:22:03;;;;;;;;;;;28.70;58.70;;;;;;5073072;28;19916;-89
2022/05/24 10:24:45;;;;;;;;;;;28.70;59.20;;;;;;5066350;28;19921;-89
2022/05/24 10:27:30;;;;;;;;;;;29.20;60.70;;;;;;5061044;28;19916;-90
2022/05/24 10:30:06;;;;;;;;;;;29.60;57.90;;;;;;5071110;28;19919;-89
2022/05/24 10:38:41;;;;;;;;;;;30.90;55.30;;;;;;5071364;28;19923;-88
2022/05/24 10:41:12;;;;;;;;;;;31.20;57.40;;;;;;5076296;28;19897;-89
2022/05/24 10:43:43;;;;;;;;;;;31.60;56.70;;;;;;5066132;28;19921;-89
2022/05/24 10:46:14;;;;;;;;;;;31.50;54.00;;;;;;5061234;28;19907;-89
2022/05/24 10:48:48;;;;;;;;;;;31.50;52.70;;;;;;5069642;28;19913;-90
2022/05/24 10:51:32;;;;;;;;;;;31.30;53.10;;;;;;5076723;28;19927;-89
2022/05/24 10:54:10;;;;;;;;;;;31.40;54.30;;;;;;5072758;28;20681;-89
2022/05/24 10:56:35;;;;;;;;;;;32.00;53.60;;;;;;5052532;28;19934;-89
2022/05/24 10:59:06;;;;;;;;;;;32.40;53.50;;;;;;5067578;28;20279;-89
2022/05/24 11:01:33;;;;;;;;;;;33.10;53.70;;;;;;5081148;28;20461;-89
2022/05/24 11:04:04;;;;;;;;;;;34.00;52.10;;;;;;5076015;28;19935;-89
2022/05/24 11:06:32;;;;;;;;;;;34.20;48.70;;;;;;5057885;28;19925;-88
2022/05/24 11:09:03;;;;;;;;;;;33.90;46.30;;;;;;5061845;28;19916;-88
2022/05/24 11:11:48;;;;;;;;;;;33.20;44.60;;;;;;5065679;28;19946;-90
2022/05/24 11:14:23;;;;;;;;;;;32.60;47.80;;;;;;5061570;28;19943;-89
2022/05/24 11:16:49;;;;;;;;;;;32.00;49.10;;;;;;5064174;28;19920;-89
2022/05/24 11:19:17;;;;;;;;;;;31.50;50.70;;;;;;5063797;28;19983;-89
2022/05/24 11:22:02;;;;;;;;;;;31.10;52.50;;;;;;5065691;28;19963;-89
2022/05/24 11:24:32;;;;;;;;;;;30.70;52.30;;;;;;5070617;28;19924;-89
2022/05/24 11:27:00;;;;;;;;;;;30.20;52.30;;;;;;5049913;28;19920;-90
2022/05/24 11:29:28;;;;;;;;;;;30.00;53.10;;;;;;5088441;28;20272;-90
2022/05/24 11:32:00;;;;;;;;;;;29.90;51.90;;;;;;5059775;28;19959;-90
2022/05/24 11:34:25;;;;;;;;;;;30.10;52.80;;;;;;5066607;28;20045;-90
2022/05/24 11:37:03;;;;;;;;;;;31.00;52.60;;;;;;5073246;28;20395;-89
2022/05/24 11:39:30;;;;;;;;;;;31.70;49.00;;;;;;5075167;28;19921;-90
2022/05/24 11:42:14;;;;;;;;;;;32.40;46.60;;;;;;5079867;28;19923;-90
2022/05/24 11:44:40;;;;;;;;;;;33.20;45.20;;;;;;5077898;28;19978;-88
2022/05/24 11:47:06;;;;;;;;;;;33.50;44.30;;;;;;5076201;28;19912;-89
2022/05/24 11:49:35;;;;;;;;;;;33.50;43.40;;;;;;5069739;28;20002;-88
2022/05/24 11:52:20;;;;;;;;;;;33.20;44.00;;;;;;5077581;28;20007;-89
2022/05/24 11:54:49;;;;;;;;;;;32.60;40.00;;;;;;5073016;28;19921;-90
2022/05/24 11:57:23;;;;;;;;;;;31.70;40.80;;;;;;5081788;28;19922;-89
2022/05/24 11:59:50;;;;;;;;;;;31.20;42.70;;;;;;5057619;28;19920;-89
2022/05/24 12:02:22;;;;;;;;;;;30.80;43.30;;;;;;5062116;28;19920;-89
2022/05/24 12:07:54;;;;;;;;;;;30.70;45.70;;;;;;5076597;28;19923;-88
2022/05/24 12:10:22;;;;;;;;;;;30.90;43.70;;;;;;5091633;28;19924;-88
2022/05/24 12:12:57;;;;;;;;;;;30.80;42.90;;;;;;5074076;28;19920;-89
2022/05/24 12:15:24;;;;;;;;;;;30.80;42.80;;;;;;5072865;28;19944;-88
2022/05/24 12:17:51;;;;;;;;;;;31.00;43.20;;;;;;5060133;28;19968;-89
2022/05/24 12:20:32;;;;;;;;;;;31.30;42.30;;;;;;5068094;28;19916;-88
2022/05/24 12:23:07;;;;;;;;;;;31.60;42.30;;;;;;5088069;28;19998;-87
2022/05/24 12:25:51;;;;;;;;;;;31.90;42.30;;;;;;5064427;28;19987;-88
2022/05/24 12:28:17;;;;;;;;;;;32.00;39.80;;;;;;5062780;28;19916;-89
2022/05/24 12:30:44;;;;;;;;;;;32.40;41.10;;;;;;5069638;28;20380;-90
2022/05/24 12:33:22;;;;;;;;;;;33.20;41.60;;;;;;5086998;28;19913;-90
2022/05/24 12:35:49;;;;;;;;;;;33.30;39.70;;;;;;5080702;28;20003;-92
2022/05/24 12:38:16;;;;;;;;;;;32.80;38.90;;;;;;5059445;28;20380;-88
2022/05/24 12:40:42;;;;;;;;;;;32.30;37.60;;;;;;5071960;28;19940;-90
2022/05/24 12:43:12;;;;;;;;;;;31.80;37.40;;;;;;5062814;28;19938;-89
2022/05/24 12:45:40;;;;;;;;;;;31.80;35.20;;;;;;5084802;28;19912;-88
2022/05/24 12:48:11;;;;;;;;;;;31.70;36.90;;;;;;5085886;28;19916;-89
2022/05/24 12:50:39;;;;;;;;;;;31.40;37.10;;;;;;5076229;28;19913;-88
2022/05/24 12:53:06;;;;;;;;;;;31.20;37.70;;;;;;5068416;28;19913;-88
2022/05/24 12:58:25;;;;;;;;;;;31.10;38.10;;;;;;5076702;28;19927;-90
2022/05/24 13:00:50;;;;;;;;;;;31.20;36.80;;;;;;5074150;28;19917;-88
2022/05/24 13:03:25;;;;;;;;;;;31.20;38.30;;;;;;5083985;28;19912;-89
2022/05/24 13:05:53;;;;;;;;;;;32.00;38.00;;;;;;5064628;28;20050;-89
2022/05/24 13:08:19;;;;;;;;;;;32.80;35.60;;;;;;5060944;28;19923;-90
2022/05/24 13:10:45;;;;;;;;;;;33.20;34.10;;;;;;5081777;28;19917;-89
2022/05/24 13:13:21;;;;;;;;;;;33.50;33.20;;;;;;5073736;28;20292;-89
2022/05/24 13:15:54;;;;;;;;;;;33.70;32.60;;;;;;5076438;28;19916;-89
2022/05/24 13:18:27;;;;;;;;;;;33.20;31.60;;;;;;5058616;28;19943;-89
2022/05/24 13:20:57;;;;;;;;;;;32.50;32.30;;;;;;5070909;28;20375;-90
2022/05/24 13:23:24;;;;;;;;;;;31.90;33.10;;;;;;5091084;28;19912;-90
2022/05/24 13:25:53;;;;;;;;;;;31.20;34.40;;;;;;5064283;28;19921;-90
2022/05/24 13:28:38;;;;;;;;;;;30.50;35.90;;;;;;5064135;28;19912;-91
2022/05/24 13:34:14;;;;;;;;;;;28.50;46.10;;;;;;5086808;28;20414;-89
2022/05/24 13:36:43;;;;;;;;;;;28.60;49.00;;;;;;5066640;28;20419;-89
2022/05/24 13:39:11;;;;;;;;;;;28.30;49.10;;;;;;5066445;28;19916;-90
2022/05/24 13:41:42;;;;;;;;;;;28.30;50.10;;;;;;5065220;28;19912;-89
2022/05/24 13:44:27;;;;;;;;;;;29.10;52.30;;;;;;5079306;28;20352;-89
2022/05/24 13:46:57;;;;;;;;;;;30.10;52.60;;;;;;5059258;28;19912;-89
2022/05/24 13:49:29;;;;;;;;;;;30.80;49.40;;;;;;5077764;28;20007;-88
2022/05/24 13:52:11;;;;;;;;;;;31.20;46.80;;;;;;5075423;28;19974;-90
2022/05/24 13:54:37;;;;;;;;;;;31.40;46.40;;;;;;5062488;28;19975;-89
2022/05/24 13:57:03;;;;;;;;;;;31.70;44.80;;;;;;5077661;28;20050;-89
2022/05/24 13:59:28;;;;;;;;;;;31.50;41.70;;;;;;5045662;28;19954;-89
2022/05/24 14:01:55;;;;;;;;;;;31.10;44.00;;;;;;5070118;28;19932;-89
2022/05/24 14:04:22;;;;;;;;;;;31.00;44.60;;;;;;5062670;28;19913;-88
2022/05/24 14:06:53;;;;;;;;;;;30.50;44.40;;;;;;5064268;28;19916;-90
2022/05/24 14:09:18;;;;;;;;;;;30.00;44.30;;;;;;5076812;28;19995;-89
2022/05/24 14:11:50;;;;;;;;;;;29.70;44.10;;;;;;5060209;28;20007;-88
2022/05/24 14:14:16;;;;;;;;;;;29.80;43.40;;;;;;5081027;28;19928;-89
2022/05/24 14:16:42;;;;;;;;;;;30.20;41.90;;;;;;5044244;28;19974;-89
2022/05/24 14:19:08;;;;;;;;;;;30.60;42.10;;;;;;5066886;28;20288;-91
2022/05/24 14:21:34;;;;;;;;;;;30.50;38.50;;;;;;5045769;28;19921;-89
2022/05/24 14:24:00;;;;;;;;;;;30.20;38.60;;;;;;5048358;28;19913;-89
2022/05/24 14:26:26;;;;;;;;;;;29.90;39.00;;;;;;5070573;28;19947;-89
2022/05/24 14:28:52;;;;;;;;;;;29.70;37.90;;;;;;5062747;28;19917;-90
2022/05/24 14:31:21;;;;;;;;;;;29.40;38.60;;;;;;5054135;28;20061;-91
2022/05/24 14:33:47;;;;;;;;;;;29.30;39.60;;;;;;5066236;28;20293;-90
2022/05/24 14:36:12;;;;;;;;;;;29.20;38.10;;;;;;5064697;28;19932;-88
2022/05/24 14:38:38;;;;;;;;;;;29.10;39.20;;;;;;5053449;28;19976;-90
2022/05/24 14:41:22;;;;;;;;;;;29.00;39.00;;;;;;5048217;28;19909;-90
2022/05/24 14:43:49;;;;;;;;;;;29.00;38.80;;;;;;5056482;28;19919;-89
2022/05/24 14:46:17;;;;;;;;;;;29.00;37.70;;;;;;5045911;28;19920;-91
2022/05/24 14:48:43;;;;;;;;;;;29.00;38.40;;;;;;5062105;28;19955;-91
2022/05/24 14:51:10;;;;;;;;;;;28.90;38.20;;;;;;5080815;28;19925;-91
2022/05/24 14:53:37;;;;;;;;;;;28.90;38.90;;;;;;5061589;28;19917;-90
2022/05/24 14:56:02;;;;;;;;;;;28.90;38.00;;;;;;5077396;28;20271;-90
2022/05/24 14:58:28;;;;;;;;;;;28.80;37.10;;;;;;5057129;28;19917;-89
2022/05/24 15:00:53;;;;;;;;;;;28.80;36.60;;;;;;5069576;28;20016;-88
2022/05/24 15:03:19;;;;;;;;;;;28.70;35.10;;;;;;5080480;28;19915;-89
2022/05/24 15:05:45;;;;;;;;;;;28.70;36.00;;;;;;5076819;28;19917;-90
2022/05/24 15:16:25;;;;;;;;;;;28.90;36.30;;;;;;5082476;28;19970;-88